Terminal Aerodrome Forecast
Issued by NWS Shreveport, LA

Home | Current Version | Previous Version | Text Only | Print | Product List | Glossary On
Versions: 1 2 3 4 5 6 7 8 9 10 11 12 13 14 15 16 17 18
000
FTUS44 KSHV 012000 AAB
TAFSHV
TAF AMD
KSHV 012049Z 0121/0218 15010KT P6SM VCSH BKN040
      TEMPO 0121/0122 4SM TSRA BR OVC020CB
     FM020000 15005KT P6SM SCT040
     FM020700 17005KT 6SM BR BKN025
      TEMPO 0209/0213 3SM BR OVC012
     FM021500 18010KT P6SM SCT020 BKN040=

USA.gov is the U.S. government's official web portal to all federal, state and local government web resources and services.